sensor_id;sensor_type;location;lat;lon;timestamp;pressure;altitude;pressure_sealevel;temperature;humidity
21730;BME280;11027;51.030;13.812;2023-11-21T00:01:34;99506.47;;;10.39;76.45
21730;BME280;11027;51.030;13.812;2023-11-21T00:03:59;99510.28;;;10.45;76.27
21730;BME280;11027;51.030;13.812;2023-11-21T00:06:26;99508.13;;;10.40;76.49
21730;BME280;11027;51.030;13.812;2023-11-21T00:08:51;99512.38;;;10.43;76.38
21730;BME280;11027;51.030;13.812;2023-11-21T00:11:17;99511.13;;;10.45;76.35
21730;BME280;11027;51.030;13.812;2023-11-21T00:13:42;99509.00;;;10.40;76.51
21730;BME280;11027;51.030;13.812;2023-11-21T00:16:07;99508.13;;;10.40;76.51
21730;BME280;11027;51.030;13.812;2023-11-21T00:18:33;99514.75;;;10.31;76.92
21730;BME280;11027;51.030;13.812;2023-11-21T00:20:58;99517.19;;;10.26;77.22
21730;BME280;11027;51.030;13.812;2023-11-21T00:23:24;99523.28;;;10.28;77.22
21730;BME280;11027;51.030;13.812;2023-11-21T00:25:49;99529.78;;;10.27;76.79
21730;BME280;11027;51.030;13.812;2023-11-21T00:28:14;99518.81;;;10.20;77.69
21730;BME280;11027;51.030;13.812;2023-11-21T00:30:40;99519.56;;;10.14;77.61
21730;BME280;11027;51.030;13.812;2023-11-21T00:33:05;99520.22;;;10.16;77.96
21730;BME280;11027;51.030;13.812;2023-11-21T00:35:30;99518.59;;;10.21;77.97
21730;BME280;11027;51.030;13.812;2023-11-21T00:37:56;99520.91;;;10.18;78.00
21730;BME280;11027;51.030;13.812;2023-11-21T00:40:22;99516.66;;;10.15;78.15
21730;BME280;11027;51.030;13.812;2023-11-21T00:42:48;99518.53;;;10.15;78.10
21730;BME280;11027;51.030;13.812;2023-11-21T00:45:13;99524.19;;;10.13;78.24
21730;BME280;11027;51.030;13.812;2023-11-21T00:47:38;99529.38;;;10.08;78.50
21730;BME280;11027;51.030;13.812;2023-11-21T00:50:04;99524.19;;;10.13;78.39
21730;BME280;11027;51.030;13.812;2023-11-21T00:52:31;99534.69;;;10.16;78.55
21730;BME280;11027;51.030;13.812;2023-11-21T00:54:57;99534.69;;;10.16;78.36
21730;BME280;11027;51.030;13.812;2023-11-21T00:57:24;99529.25;;;10.16;78.43
21730;BME280;11027;51.030;13.812;2023-11-21T00:59:49;99531.31;;;10.14;78.59
21730;BME280;11027;51.030;13.812;2023-11-21T01:02:15;99537.53;;;10.08;78.83
21730;BME280;11027;51.030;13.812;2023-11-21T01:04:40;99532.09;;;10.08;79.02
21730;BME280;11027;51.030;13.812;2023-11-21T01:07:05;99544.72;;;10.16;79.09
21730;BME280;11027;51.030;13.812;2023-11-21T01:09:31;99542.66;;;10.18;78.92
21730;BME280;11027;51.030;13.812;2023-11-21T01:11:56;99554.41;;;10.18;78.76
21730;BME280;11027;51.030;13.812;2023-11-21T01:14:22;99551.41;;;10.13;78.91
21730;BME280;11027;51.030;13.812;2023-11-21T01:16:47;99544.66;;;10.09;78.65
21730;BME280;11027;51.030;13.812;2023-11-21T01:19:13;99548.44;;;10.08;79.02
21730;BME280;11027;51.030;13.812;2023-11-21T01:21:39;99549.44;;;10.07;79.36
21730;BME280;11027;51.030;13.812;2023-11-21T01:24:04;99547.13;;;10.04;79.29
21730;BME280;11027;51.030;13.812;2023-11-21T01:26:32;99548.31;;;10.01;79.37
21730;BME280;11027;51.030;13.812;2023-11-21T01:28:57;99556.25;;;9.96;79.39
21730;BME280;11027;51.030;13.812;2023-11-21T01:31:23;99560.84;;;9.96;79.56
21730;BME280;11027;51.030;13.812;2023-11-21T01:33:48;99555.78;;;9.93;79.67
21730;BME280;11027;51.030;13.812;2023-11-21T01:36:13;99553.06;;;9.93;79.73
21730;BME280;11027;51.030;13.812;2023-11-21T01:38:39;99550.88;;;10.03;79.67
21730;BME280;11027;51.030;13.812;2023-11-21T01:41:04;99544.19;;;10.06;79.33
21730;BME280;11027;51.030;13.812;2023-11-21T01:43:31;99544.19;;;10.06;79.27
21730;BME280;11027;51.030;13.812;2023-11-21T01:45:57;99544.59;;;10.02;79.54
21730;BME280;11027;51.030;13.812;2023-11-21T01:48:24;99544.59;;;10.02;79.44
21730;BME280;11027;51.030;13.812;2023-11-21T01:50:50;99550.03;;;10.02;79.61
21730;BME280;11027;51.030;13.812;2023-11-21T01:53:15;99553.34;;;9.98;79.57
21730;BME280;11027;51.030;13.812;2023-11-21T01:55:41;99553.88;;;9.93;79.83
21730;BME280;11027;51.030;13.812;2023-11-21T01:58:08;99552.88;;;9.94;79.81
21730;BME280;11027;51.030;13.812;2023-11-21T02:00:34;99549.97;;;9.96;79.66
21730;BME280;11027;51.030;13.812;2023-11-21T02:02:59;99555.00;;;9.99;79.57
21730;BME280;11027;51.030;13.812;2023-11-21T02:05:24;99552.47;;;9.97;79.79
21730;BME280;11027;51.030;13.812;2023-11-21T02:07:51;99552.28;;;9.99;79.72
21730;BME280;11027;51.030;13.812;2023-11-21T02:10:18;99553.34;;;9.98;79.72
21730;BME280;11027;51.030;13.812;2023-11-21T02:12:48;99552.09;;;10.00;79.74
21730;BME280;11027;51.030;13.812;2023-11-21T02:15:14;99558.38;;;10.01;79.73
21730;BME280;11027;51.030;13.812;2023-11-21T02:17:45;99553.88;;;10.08;79.47
21730;BME280;11027;51.030;13.812;2023-11-21T02:20:12;99550.94;;;10.10;79.15
21730;BME280;11027;51.030;13.812;2023-11-21T02:22:41;99562.47;;;10.12;79.20
21730;BME280;11027;51.030;13.812;2023-11-21T02:25:07;99562.28;;;10.13;79.01
21730;BME280;11027;51.030;13.812;2023-11-21T02:27:33;99555.94;;;10.06;78.89
21730;BME280;11027;51.030;13.812;2023-11-21T02:29:58;99562.22;;;10.07;79.00
21730;BME280;11027;51.030;13.812;2023-11-21T02:32:25;99563.63;;;10.02;78.72
21730;BME280;11027;51.030;13.812;2023-11-21T02:34:51;99560.44;;;9.99;79.02
21730;BME280;11027;51.030;13.812;2023-11-21T02:37:16;99556.25;;;9.96;79.30
21730;BME280;11027;51.030;13.812;2023-11-21T02:39:41;99565.13;;;10.05;79.28
21730;BME280;11027;51.030;13.812;2023-11-21T02:42:07;99562.69;;;10.10;78.76
21730;BME280;11027;51.030;13.812;2023-11-21T02:44:32;99566.81;;;10.06;78.53
21730;BME280;11027;51.030;13.812;2023-11-21T02:46:57;99562.16;;;10.00;78.50
21730;BME280;11027;51.030;13.812;2023-11-21T02:49:23;99567.97;;;9.97;78.68
21730;BME280;11027;51.030;13.812;2023-11-21T02:51:48;99564.34;;;9.90;78.69
21730;BME280;11027;51.030;13.812;2023-11-21T02:54:13;99561.63;;;9.90;78.59
21730;BME280;11027;51.030;13.812;2023-11-21T02:56:39;99570.22;;;9.93;78.54
21730;BME280;11027;51.030;13.812;2023-11-21T02:59:05;99573.50;;;9.89;78.48
21730;BME280;11027;51.030;13.812;2023-11-21T03:01:30;99565.19;;;9.75;78.61
21730;BME280;11027;51.030;13.812;2023-11-21T03:03:56;99576.56;;;9.64;78.92
21730;BME280;11027;51.030;13.812;2023-11-21T03:06:22;99573.56;;;9.59;79.38
21730;BME280;11027;51.030;13.812;2023-11-21T03:08:47;99579.38;;;9.56;79.57
21730;BME280;11027;51.030;13.812;2023-11-21T03:11:13;99580.97;;;9.50;79.82
21730;BME280;11027;51.030;13.812;2023-11-21T03:13:42;99583.88;;;9.49;79.95
21730;BME280;11027;51.030;13.812;2023-11-21T03:16:11;99580.22;;;9.41;80.05
21730;BME280;11027;51.030;13.812;2023-11-21T03:18:38;99580.22;;;9.41;80.15
21730;BME280;11027;51.030;13.812;2023-11-21T03:21:07;99586.03;;;9.38;80.15
21730;BME280;11027;51.030;13.812;2023-11-21T03:23:36;99590.72;;;9.45;80.21
21730;BME280;11027;51.030;13.812;2023-11-21T03:26:02;99591.47;;;9.38;80.23
21730;BME280;11027;51.030;13.812;2023-11-21T03:28:28;99591.00;;;9.35;80.20
21730;BME280;11027;51.030;13.812;2023-11-21T03:30:53;99593.16;;;9.39;80.46
21730;BME280;11027;51.030;13.812;2023-11-21T03:33:19;99585.00;;;9.39;80.13
21730;BME280;11027;51.030;13.812;2023-11-21T03:35:44;99586.03;;;9.38;80.16
21730;BME280;11027;51.030;13.812;2023-11-21T03:38:10;99587.72;;;9.39;80.16
21730;BME280;11027;51.030;13.812;2023-11-21T03:40:35;99590.44;;;9.39;80.22
21730;BME280;11027;51.030;13.812;2023-11-21T03:43:01;99598.59;;;9.39;80.21
21730;BME280;11027;51.030;13.812;2023-11-21T03:45:26;99596.72;;;9.40;80.06
21730;BME280;11027;51.030;13.812;2023-11-21T03:47:51;99602.63;;;9.44;79.94
21730;BME280;11027;51.030;13.812;2023-11-21T03:50:16;99593.53;;;9.36;80.41
21730;BME280;11027;51.030;13.812;2023-11-21T03:52:42;99595.22;;;9.37;80.18
21730;BME280;11027;51.030;13.812;2023-11-21T03:55:08;99592.50;;;9.37;80.02
21730;BME280;11027;51.030;13.812;2023-11-21T03:57:33;99597.28;;;9.35;80.07
21730;BME280;11027;51.030;13.812;2023-11-21T03:59:58;99605.44;;;9.35;80.28
21730;BME280;11027;51.030;13.812;2023-11-21T04:02:23;99593.34;;;9.38;80.17
21730;BME280;11027;51.030;13.812;2023-11-21T04:04:51;99593.53;;;9.36;79.96
21730;BME280;11027;51.030;13.812;2023-11-21T04:07:16;99597.28;;;9.35;80.15
21730;BME280;11027;51.030;13.812;2023-11-21T04:09:42;99596.63;;;9.33;80.09
21730;BME280;11027;51.030;13.812;2023-11-21T04:12:08;99604.78;;;9.33;80.27
21730;BME280;11027;51.030;13.812;2023-11-21T04:14:34;99605.44;;;9.35;80.07
21730;BME280;11027;51.030;13.812;2023-11-21T04:17:00;99604.03;;;9.39;80.07
21730;BME280;11027;51.030;13.812;2023-11-21T04:19:25;99605.72;;;9.40;79.99
21730;BME280;11027;51.030;13.812;2023-11-21T04:21:50;99603.09;;;9.32;79.89
21730;BME280;11027;51.030;13.812;2023-11-21T04:24:16;99605.31;;;9.29;80.16
21730;BME280;11027;51.030;13.812;2023-11-21T04:26:41;99601.78;;;9.28;80.28
21730;BME280;11027;51.030;13.812;2023-11-21T04:29:06;99615.53;;;9.27;80.21
21730;BME280;11027;51.030;13.812;2023-11-21T04:31:32;99616.03;;;9.30;80.48
21730;BME280;11027;51.030;13.812;2023-11-21T04:33:57;99624.84;;;9.32;80.32
21730;BME280;11027;51.030;13.812;2023-11-21T04:36:22;99620.22;;;9.33;80.29
21730;BME280;11027;51.030;13.812;2023-11-21T04:38:48;99616.84;;;9.31;80.20
21730;BME280;11027;51.030;13.812;2023-11-21T04:41:13;99621.09;;;9.33;80.17
21730;BME280;11027;51.030;13.812;2023-11-21T04:43:38;99620.34;;;9.39;79.82
21730;BME280;11027;51.030;13.812;2023-11-21T04:46:04;99622.69;;;9.43;79.68
21730;BME280;11027;51.030;13.812;2023-11-21T04:48:29;99627.09;;;9.44;79.57
21730;BME280;11027;51.030;13.812;2023-11-21T04:50:54;99633.56;;;9.43;79.66
21730;BME280;11027;51.030;13.812;2023-11-21T04:53:20;99640.03;;;9.41;79.69
21730;BME280;11027;51.030;13.812;2023-11-21T04:55:45;99633.75;;;9.41;79.60
21730;BME280;11027;51.030;13.812;2023-11-21T04:58:11;99631.69;;;9.43;79.60
21730;BME280;11027;51.030;13.812;2023-11-21T05:00:37;99637.97;;;9.44;79.58
21730;BME280;11027;51.030;13.812;2023-11-21T05:03:03;99637.13;;;9.43;79.73
21730;BME280;11027;51.030;13.812;2023-11-21T05:05:29;99636.53;;;9.33;79.51
21730;BME280;11027;51.030;13.812;2023-11-21T05:07:59;99640.88;;;9.27;80.14
21730;BME280;11027;51.030;13.812;2023-11-21T05:10:24;99639.81;;;9.28;80.10
21730;BME280;11027;51.030;13.812;2023-11-21T05:12:49;99635.22;;;9.29;80.16
21730;BME280;11027;51.030;13.812;2023-11-21T05:15:16;99641.97;;;9.33;80.21
21730;BME280;11027;51.030;13.812;2023-11-21T05:17:42;99644.16;;;9.37;80.00
21730;BME280;11027;51.030;13.812;2023-11-21T05:20:10;99650.91;;;9.41;80.00
21730;BME280;11027;51.030;13.812;2023-11-21T05:22:36;99652.22;;;9.46;79.77
21730;BME280;11027;51.030;13.812;2023-11-21T05:25:02;99656.34;;;9.41;79.90
21730;BME280;11027;51.030;13.812;2023-11-21T05:27:29;99655.41;;;9.34;80.03
21730;BME280;11027;51.030;13.812;2023-11-21T05:29:55;99661.13;;;9.39;80.08
21730;BME280;11027;51.030;13.812;2023-11-21T05:32:20;99655.97;;;9.45;79.75
21730;BME280;11027;51.030;13.812;2023-11-21T05:34:45;99659.72;;;9.44;79.88
21730;BME280;11027;51.030;13.812;2023-11-21T05:37:10;99659.44;;;9.38;80.06
21730;BME280;11027;51.030;13.812;2023-11-21T05:39:36;99658.88;;;9.43;80.01
21730;BME280;11027;51.030;13.812;2023-11-21T05:42:01;99665.91;;;9.37;79.85
21730;BME280;11027;51.030;13.812;2023-11-21T05:44:26;99667.59;;;9.38;79.96
21730;BME280;11027;51.030;13.812;2023-11-21T05:46:52;99665.53;;;9.40;79.94
21730;BME280;11027;51.030;13.812;2023-11-21T05:49:17;99673.97;;;9.46;79.98
21730;BME280;11027;51.030;13.812;2023-11-21T05:51:42;99673.06;;;9.53;79.85
21730;BME280;11027;51.030;13.812;2023-11-21T05:54:08;99674.81;;;9.61;79.78
21730;BME280;11027;51.030;13.812;2023-11-21T05:56:33;99672.41;;;9.66;79.59
21730;BME280;11027;51.030;13.812;2023-11-21T05:58:59;99666.78;;;9.68;79.52
21730;BME280;11027;51.030;13.812;2023-11-21T06:01:25;99668.28;;;9.70;79.50
21730;BME280;11027;51.030;13.812;2023-11-21T06:03:53;99678.78;;;9.73;79.36
21730;BME280;11027;51.030;13.812;2023-11-21T06:06:20;99674.38;;;9.72;79.37
21730;BME280;11027;51.030;13.812;2023-11-21T06:08:47;99667.22;;;9.71;79.32
21730;BME280;11027;51.030;13.812;2023-11-21T06:11:12;99677.66;;;9.68;79.43
21730;BME280;11027;51.030;13.812;2023-11-21T06:13:39;99679.50;;;9.67;79.53
21730;BME280;11027;51.030;13.812;2023-11-21T06:16:04;99688.53;;;9.68;79.48
21730;BME280;11027;51.030;13.812;2023-11-21T06:18:30;99688.53;;;9.68;79.59
21730;BME280;11027;51.030;13.812;2023-11-21T06:20:55;99687.03;;;9.65;79.70
21730;BME280;11027;51.030;13.812;2023-11-21T06:23:20;99691.44;;;9.66;79.79
21730;BME280;11027;51.030;13.812;2023-11-21T06:25:45;99693.78;;;9.69;79.84
21730;BME280;11027;51.030;13.812;2023-11-21T06:28:11;99693.59;;;9.71;79.94
21730;BME280;11027;51.030;13.812;2023-11-21T06:30:36;99695.66;;;9.69;79.91
21730;BME280;11027;51.030;13.812;2023-11-21T06:33:01;99696.88;;;9.66;80.01
21730;BME280;11027;51.030;13.812;2023-11-21T06:35:27;99696.88;;;9.66;80.00
21730;BME280;11027;51.030;13.812;2023-11-21T06:37:55;99696.50;;;9.69;79.88
21730;BME280;11027;51.030;13.812;2023-11-21T06:40:20;99705.31;;;9.71;79.83
21730;BME280;11027;51.030;13.812;2023-11-21T06:42:46;99704.97;;;9.74;79.70
21730;BME280;11027;51.030;13.812;2023-11-21T06:45:12;99700.25;;;9.68;79.35
21730;BME280;11027;51.030;13.812;2023-11-21T06:47:37;99706.81;;;9.59;79.42
21730;BME280;11027;51.030;13.812;2023-11-21T06:50:03;99706.97;;;9.43;79.69
21730;BME280;11027;51.030;13.812;2023-11-21T06:52:29;99705.66;;;9.38;80.20
21730;BME280;11027;51.030;13.812;2023-11-21T06:54:54;99713.88;;;9.30;80.40
21730;BME280;11027;51.030;13.812;2023-11-21T06:57:19;99709.28;;;9.31;80.45
21730;BME280;11027;51.030;13.812;2023-11-21T06:59:45;99705.00;;;9.36;80.50
21730;BME280;11027;51.030;13.812;2023-11-21T07:02:10;99718.50;;;9.45;80.44
21730;BME280;11027;51.030;13.812;2023-11-21T07:04:36;99712.72;;;9.48;80.22
21730;BME280;11027;51.030;13.812;2023-11-21T07:07:04;99716.63;;;9.45;80.32
21730;BME280;11027;51.030;13.812;2023-11-21T07:09:32;99717.00;;;9.42;80.18
21730;BME280;11027;51.030;13.812;2023-11-21T07:11:57;99711.47;;;9.35;80.48
21730;BME280;11027;51.030;13.812;2023-11-21T07:14:23;99721.03;;;9.31;80.94
21730;BME280;11027;51.030;13.812;2023-11-21T07:16:48;99717.91;;;9.34;80.94
21730;BME280;11027;51.030;13.812;2023-11-21T07:19:13;99719.63;;;9.35;80.99
21730;BME280;11027;51.030;13.812;2023-11-21T07:21:39;99727.13;;;9.33;81.23
21730;BME280;11027;51.030;13.812;2023-11-21T07:24:06;99734.22;;;9.34;80.97
21730;BME280;11027;51.030;13.812;2023-11-21T07:26:33;99734.41;;;9.33;81.34
21730;BME280;11027;51.030;13.812;2023-11-21T07:28:59;99733.56;;;9.32;81.17
21730;BME280;11027;51.030;13.812;2023-11-21T07:31:24;99733.88;;;9.37;81.48
21730;BME280;11027;51.030;13.812;2023-11-21T07:33:50;99740.44;;;9.43;81.40
21730;BME280;11027;51.030;13.812;2023-11-21T07:36:16;99735.97;;;9.50;81.30
21730;BME280;11027;51.030;13.812;2023-11-21T07:38:43;99740.91;;;9.47;81.16
21730;BME280;11027;51.030;13.812;2023-11-21T07:41:10;99755.91;;;9.43;81.37
21730;BME280;11027;51.030;13.812;2023-11-21T07:43:35;99745.75;;;9.36;81.48
21730;BME280;11027;51.030;13.812;2023-11-21T07:46:02;99752.91;;;9.37;81.59
21730;BME280;11027;51.030;13.812;2023-11-21T07:48:30;99757.97;;;9.40;81.93
21730;BME280;11027;51.030;13.812;2023-11-21T07:50:57;99755.56;;;9.46;82.00
21730;BME280;11027;51.030;13.812;2023-11-21T07:53:24;99751.44;;;9.50;81.75
21730;BME280;11027;51.030;13.812;2023-11-21T07:55:50;99764.22;;;9.64;81.92
21730;BME280;11027;51.030;13.812;2023-11-21T07:58:15;99755.59;;;9.75;81.69
21730;BME280;11027;51.030;13.812;2023-11-21T08:00:41;99753.28;;;9.87;81.24
21730;BME280;11027;51.030;13.812;2023-11-21T08:03:06;99761.34;;;9.95;80.99
21730;BME280;11027;51.030;13.812;2023-11-21T08:05:31;99759.00;;;9.92;80.88
21730;BME280;11027;51.030;13.812;2023-11-21T08:07:57;99763.31;;;9.87;80.55
21730;BME280;11027;51.030;13.812;2023-11-21T08:10:22;99758.63;;;9.80;80.98
21730;BME280;11027;51.030;13.812;2023-11-21T08:12:47;99765.38;;;9.85;80.66
21730;BME280;11027;51.030;13.812;2023-11-21T08:15:14;99765.38;;;9.85;80.76
21730;BME280;11027;51.030;13.812;2023-11-21T08:17:39;99767.44;;;9.82;81.03
21730;BME280;11027;51.030;13.812;2023-11-21T08:20:05;99769.56;;;9.72;81.05
21730;BME280;11027;51.030;13.812;2023-11-21T08:22:31;99767.22;;;9.69;81.11
21730;BME280;11027;51.030;13.812;2023-11-21T08:24:57;99763.56;;;9.62;81.72
21730;BME280;11027;51.030;13.812;2023-11-21T08:27:22;99770.41;;;9.58;82.10
21730;BME280;11027;51.030;13.812;2023-11-21T08:29:47;99764.56;;;9.61;82.22
21730;BME280;11027;51.030;13.812;2023-11-21T08:32:13;99768.34;;;9.60;82.70
21730;BME280;11027;51.030;13.812;2023-11-21T08:34:38;99772.81;;;9.53;82.87
21730;BME280;11027;51.030;13.812;2023-11-21T08:37:05;99778.16;;;9.46;83.75
21730;BME280;11027;51.030;13.812;2023-11-21T08:39:30;99771.28;;;9.35;84.59
21730;BME280;11027;51.030;13.812;2023-11-21T08:41:57;99769.69;;;9.41;85.31
21730;BME280;11027;51.030;13.812;2023-11-21T08:44:22;99780.88;;;9.46;85.45
21730;BME280;11027;51.030;13.812;2023-11-21T08:46:48;99778.63;;;9.50;85.94
21730;BME280;11027;51.030;13.812;2023-11-21T08:49:14;99775.19;;;9.56;85.81
21730;BME280;11027;51.030;13.812;2023-11-21T08:51:40;99776.69;;;9.58;86.01
21730;BME280;11027;51.030;13.812;2023-11-21T08:54:05;99770.41;;;9.58;85.98
21730;BME280;11027;51.030;13.812;2023-11-21T08:56:33;99783.69;;;9.53;86.30
21730;BME280;11027;51.030;13.812;2023-11-21T08:58:59;99783.47;;;9.39;86.74
21730;BME280;11027;51.030;13.812;2023-11-21T09:01:27;99787.81;;;9.26;87.46
21730;BME280;11027;51.030;13.812;2023-11-21T09:03:52;99786.00;;;9.18;88.45
21730;BME280;11027;51.030;13.812;2023-11-21T09:06:18;99788.66;;;9.26;88.86
21730;BME280;11027;51.030;13.812;2023-11-21T09:08:43;99801.25;;;9.27;89.32
21730;BME280;11027;51.030;13.812;2023-11-21T09:11:08;99797.19;;;9.23;89.63
21730;BME280;11027;51.030;13.812;2023-11-21T09:13:34;99802.31;;;9.18;90.21
21730;BME280;11027;51.030;13.812;2023-11-21T09:15:59;99802.31;;;9.18;90.58
21730;BME280;11027;51.030;13.812;2023-11-21T09:18:25;99819.34;;;9.12;90.35
21730;BME280;11027;51.030;13.812;2023-11-21T09:20:50;99812.09;;;9.04;90.89
21730;BME280;11027;51.030;13.812;2023-11-21T09:23:16;99817.75;;;8.94;91.36
21730;BME280;11027;51.030;13.812;2023-11-21T09:25:41;99803.97;;;8.96;92.00
21730;BME280;11027;51.030;13.812;2023-11-21T09:28:06;99813.34;;;8.93;92.03
21730;BME280;11027;51.030;13.812;2023-11-21T09:30:34;99812.00;;;8.89;92.60
21730;BME280;11027;51.030;13.812;2023-11-21T09:33:00;99823.88;;;8.88;92.91
21730;BME280;11027;51.030;13.812;2023-11-21T09:35:25;99822.72;;;8.91;93.27
21730;BME280;11027;51.030;13.812;2023-11-21T09:37:51;99822.22;;;8.87;93.33
21730;BME280;11027;51.030;13.812;2023-11-21T09:40:20;99827.69;;;8.79;93.64
21730;BME280;11027;51.030;13.812;2023-11-21T09:43:08;99824.81;;;8.72;94.32
21730;BME280;11027;51.030;13.812;2023-11-21T09:45:44;99822.63;;;8.68;94.82
21730;BME280;11027;51.030;13.812;2023-11-21T09:48:10;99833.50;;;8.68;95.49
21730;BME280;11027;51.030;13.812;2023-11-21T09:50:37;99831.50;;;8.61;95.90
21730;BME280;11027;51.030;13.812;2023-11-21T09:53:13;99835.53;;;8.66;96.26
21730;BME280;11027;51.030;13.812;2023-11-21T09:55:43;99840.47;;;8.62;96.53
21730;BME280;11027;51.030;13.812;2023-11-21T09:58:09;99837.97;;;8.60;96.41
21730;BME280;11027;51.030;13.812;2023-11-21T10:00:41;99840.84;;;8.59;95.93
21730;BME280;11027;51.030;13.812;2023-11-21T10:03:08;99848.13;;;8.67;95.81
21730;BME280;11027;51.030;13.812;2023-11-21T10:05:34;99848.94;;;8.67;95.54
21730;BME280;11027;51.030;13.812;2023-11-21T10:08:00;99854.56;;;8.66;94.91
21730;BME280;11027;51.030;13.812;2023-11-21T10:10:27;99856.25;;;8.67;93.72
21730;BME280;11027;51.030;13.812;2023-11-21T10:12:58;99867.16;;;8.58;92.54
21730;BME280;11027;51.030;13.812;2023-11-21T10:15:26;99866.47;;;8.56;91.65
21730;BME280;11027;51.030;13.812;2023-11-21T10:17:53;99865.44;;;8.57;90.90
21730;BME280;11027;51.030;13.812;2023-11-21T10:20:20;99868.34;;;8.48;90.04
21730;BME280;11027;51.030;13.812;2023-11-21T10:22:45;99875.31;;;8.34;90.02
21730;BME280;11027;51.030;13.812;2023-11-21T10:25:11;99876.88;;;8.28;90.00
21730;BME280;11027;51.030;13.812;2023-11-21T10:27:40;99886.22;;;8.17;90.09
21730;BME280;11027;51.030;13.812;2023-11-21T10:30:06;99890.28;;;8.13;90.52
21730;BME280;11027;51.030;13.812;2023-11-21T10:32:33;99886.56;;;8.14;90.42
21730;BME280;11027;51.030;13.812;2023-11-21T10:34:59;99895.03;;;8.19;90.54
21730;BME280;11027;51.030;13.812;2023-11-21T10:37:36;99898.41;;;8.21;90.08
21730;BME280;11027;51.030;13.812;2023-11-21T10:40:02;99907.25;;;8.15;89.59
21730;BME280;11027;51.030;13.812;2023-11-21T10:42:27;99910.97;;;8.23;89.40
21730;BME280;11027;51.030;13.812;2023-11-21T10:44:53;99911.13;;;8.21;89.00
21730;BME280;11027;51.030;13.812;2023-11-21T10:47:19;99909.25;;;8.21;88.55
21730;BME280;11027;51.030;13.812;2023-11-21T10:49:48;99914.69;;;8.21;88.39
21730;BME280;11027;51.030;13.812;2023-11-21T10:52:13;99918.44;;;8.29;88.42
21730;BME280;11027;51.030;13.812;2023-11-21T10:54:43;99918.44;;;8.20;86.58
21730;BME280;11027;51.030;13.812;2023-11-21T10:57:09;99930.66;;;8.16;85.61
21730;BME280;11027;51.030;13.812;2023-11-21T10:59:36;99930.97;;;8.13;84.40
21730;BME280;11027;51.030;13.812;2023-11-21T11:02:13;99934.38;;;8.07;83.95
21730;BME280;11027;51.030;13.812;2023-11-21T11:04:47;99937.44;;;7.96;83.91
21730;BME280;11027;51.030;13.812;2023-11-21T11:07:14;99936.41;;;7.80;84.13
21730;BME280;11027;51.030;13.812;2023-11-21T11:09:41;99940.13;;;7.79;84.64
21730;BME280;11027;51.030;13.812;2023-11-21T11:12:08;99946.22;;;7.81;84.95
21730;BME280;11027;51.030;13.812;2023-11-21T11:14:35;99943.19;;;7.93;85.02
21730;BME280;11027;51.030;13.812;2023-11-21T11:17:00;99949.97;;;7.97;84.22
21730;BME280;11027;51.030;13.812;2023-11-21T11:19:27;99951.66;;;7.81;83.56
21730;BME280;11027;51.030;13.812;2023-11-21T11:22:37;99959.78;;;7.65;83.31
21730;BME280;11027;51.030;13.812;2023-11-21T11:25:19;99962.66;;;7.64;83.44
21730;BME280;11027;51.030;13.812;2023-11-21T11:28:10;99964.19;;;7.66;82.45
21730;BME280;11027;51.030;13.812;2023-11-21T11:30:47;99979.09;;;7.62;81.94
21730;BME280;11027;51.030;13.812;2023-11-21T11:36:10;99971.66;;;7.64;81.02
21730;BME280;11027;51.030;13.812;2023-11-21T11:38:38;99986.19;;;7.63;79.92
21730;BME280;11027;51.030;13.812;2023-11-21T11:41:05;99976.50;;;7.44;79.43
21730;BME280;11027;51.030;13.812;2023-11-21T11:43:31;99986.81;;;7.40;79.88
21730;BME280;11027;51.030;13.812;2023-11-21T11:46:09;99991.91;;;7.35;80.02
21730;BME280;11027;51.030;13.812;2023-11-21T11:48:38;99982.44;;;7.39;80.22
21730;BME280;11027;51.030;13.812;2023-11-21T11:51:11;99977.00;;;7.39;80.06
21730;BME280;11027;51.030;13.812;2023-11-21T11:53:41;99989.03;;;7.45;80.07
21730;BME280;11027;51.030;13.812;2023-11-21T11:58:56;99992.91;;;7.34;79.99
21730;BME280;11027;51.030;13.812;2023-11-21T12:01:24;99993.25;;;7.31;80.31
21730;BME280;11027;51.030;13.812;2023-11-21T12:06:43;99992.59;;;7.37;80.60
21730;BME280;11027;51.030;13.812;2023-11-21T12:09:17;99999.38;;;7.41;80.80
21730;BME280;11027;51.030;13.812;2023-11-21T12:11:43;99999.22;;;7.51;80.61
21730;BME280;11027;51.030;13.812;2023-11-21T12:14:09;100003.78;;;7.51;80.53
21730;BME280;11027;51.030;13.812;2023-11-21T12:16:35;100003.94;;;7.41;80.46
21730;BME280;11027;51.030;13.812;2023-11-21T12:19:00;100005.28;;;7.45;80.73
21730;BME280;11027;51.030;13.812;2023-11-21T12:21:25;100007.56;;;7.58;80.81
21730;BME280;11027;51.030;13.812;2023-11-21T12:23:51;100014.66;;;7.59;80.43
21730;BME280;11027;51.030;13.812;2023-11-21T12:26:16;100013.63;;;7.44;80.18
21730;BME280;11027;51.030;13.812;2023-11-21T12:28:42;100022.44;;;7.46;80.66
21730;BME280;11027;51.030;13.812;2023-11-21T12:31:08;100021.38;;;7.38;80.54
21730;BME280;11027;51.030;13.812;2023-11-21T12:33:34;100029.81;;;7.27;80.53
21730;BME280;11027;51.030;13.812;2023-11-21T12:36:00;100028.66;;;7.04;80.73
21730;BME280;11027;51.030;13.812;2023-11-21T12:38:33;100042.47;;;6.92;81.36
21730;BME280;11027;51.030;13.812;2023-11-21T12:40:59;100036.66;;;6.79;81.39
21730;BME280;11027;51.030;13.812;2023-11-21T12:43:25;100039.38;;;6.79;81.86
21730;BME280;11027;51.030;13.812;2023-11-21T12:45:50;100035.47;;;6.81;81.84
21730;BME280;11027;51.030;13.812;2023-11-21T12:48:18;100043.84;;;6.96;81.96
21730;BME280;11027;51.030;13.812;2023-11-21T12:50:49;100044.19;;;6.93;81.40
21730;BME280;11027;51.030;13.812;2023-11-21T12:53:18;100047.16;;;6.82;81.80
21730;BME280;11027;51.030;13.812;2023-11-21T12:55:44;100052.63;;;6.64;82.54
21730;BME280;11027;51.030;13.812;2023-11-21T12:58:15;100051.91;;;6.62;83.33
21730;BME280;11027;51.030;13.812;2023-11-21T13:00:46;100061.38;;;6.58;83.88
21730;BME280;11027;51.030;13.812;2023-11-21T13:03:13;100061.59;;;6.65;84.46